createdAt,value
2023-02-20T00:00:21.476Z,4.50
2023-02-20T00:02:51.965Z,4.73
2023-02-20T00:05:28.214Z,4.80
2023-02-20T00:07:59.790Z,6.43
2023-02-20T00:10:29.262Z,8.30
2023-02-20T00:12:57.740Z,5.97
2023-02-20T00:15:26.517Z,4.70
2023-02-20T00:17:58.903Z,5.67
2023-02-20T00:20:27.423Z,6.47
2023-02-20T00:22:56.854Z,7.20
2023-02-20T00:25:28.408Z,5.67
2023-02-20T00:27:59.243Z,7.60
2023-02-20T00:30:29.350Z,7.00
2023-02-20T00:32:59.535Z,10.53
2023-02-20T00:35:30.800Z,5.90
2023-02-20T00:37:59.011Z,7.07
2023-02-20T00:40:28.157Z,6.53
2023-02-20T00:42:56.402Z,7.63
2023-02-20T00:45:26.230Z,9.30
2023-02-20T00:47:58.370Z,5.43
2023-02-20T00:50:26.814Z,8.90
2023-02-20T00:52:57.264Z,6.87
2023-02-20T00:55:33.643Z,9.67
2023-02-20T00:58:03.656Z,7.67
2023-02-20T01:00:33.052Z,8.03
2023-02-20T01:03:05.788Z,6.03
2023-02-20T01:05:38.638Z,8.00
2023-02-20T01:08:07.728Z,8.70
2023-02-20T01:10:38.324Z,6.53
2023-02-20T01:13:06.542Z,7.80
2023-02-20T01:15:36.520Z,6.53
2023-02-20T01:18:09.125Z,5.30
2023-02-20T01:20:37.386Z,5.47
2023-02-20T01:23:06.077Z,6.93
2023-02-20T01:25:37.102Z,7.97
2023-02-20T01:28:07.231Z,6.93
2023-02-20T01:30:39.464Z,7.03
2023-02-20T01:33:11.570Z,8.57
2023-02-20T01:35:39.757Z,8.93
2023-02-20T01:38:07.695Z,5.87
2023-02-20T01:40:37.836Z,9.43
2023-02-20T01:43:06.490Z,7.93
2023-02-20T01:45:39.965Z,7.83
2023-02-20T01:48:21.800Z,6.83
2023-02-20T01:50:55.015Z,8.03
2023-02-20T01:53:28.668Z,7.37
2023-02-20T01:56:01.685Z,7.40
2023-02-20T01:58:32.616Z,6.03
2023-02-20T02:01:01.207Z,5.87
2023-02-20T02:03:33.871Z,7.73
2023-02-20T02:06:05.417Z,7.77
2023-02-20T02:08:35.719Z,6.63
2023-02-20T02:11:06.775Z,10.10
2023-02-20T02:13:38.690Z,8.73
2023-02-20T02:16:17.658Z,7.50
2023-02-20T02:18:55.069Z,8.13
2023-02-20T02:22:09.068Z,5.07
2023-02-20T02:25:14.371Z,6.93
2023-02-20T02:28:09.780Z,7.77
2023-02-20T02:31:09.387Z,6.43
2023-02-20T02:34:30.397Z,6.80
2023-02-20T02:37:04.487Z,8.60
2023-02-20T02:39:39.871Z,7.03
2023-02-20T02:42:13.857Z,7.50
2023-02-20T02:44:47.150Z,6.67
2023-02-20T02:47:22.368Z,7.73
2023-02-20T02:50:00.684Z,7.03
2023-02-20T02:52:46.794Z,6.47
2023-02-20T02:55:18.219Z,5.67
2023-02-20T02:57:46.495Z,6.07
2023-02-20T03:00:17.831Z,6.87
2023-02-20T03:02:54.336Z,9.67
2023-02-20T03:05:26.358Z,5.33
2023-02-20T03:07:58.769Z,8.73
2023-02-20T03:10:32.658Z,8.77
2023-02-20T03:13:05.632Z,8.40
2023-02-20T03:15:35.875Z,8.07
2023-02-20T03:18:15.963Z,9.07
2023-02-20T03:20:48.558Z,8.43
2023-02-20T03:23:22.783Z,8.03
2023-02-20T03:25:56.065Z,7.60
2023-02-20T03:28:27.054Z,7.77
2023-02-20T03:31:02.331Z,7.10
2023-02-20T03:33:51.353Z,10.33
2023-02-20T03:36:41.149Z,7.60
2023-02-20T03:39:35.472Z,7.70
2023-02-20T03:42:25.876Z,8.70
2023-02-20T03:45:05.430Z,8.83
2023-02-20T03:47:40.831Z,8.63
2023-02-20T03:50:11.238Z,9.13
2023-02-20T03:52:40.203Z,9.40
2023-02-20T03:55:11.506Z,7.57
2023-02-20T03:57:45.620Z,7.57
2023-02-20T04:00:19.683Z,8.20
2023-02-20T04:02:57.317Z,7.30
2023-02-20T04:05:35.341Z,9.23
2023-02-20T04:08:10.382Z,8.60
2023-02-20T04:10:44.978Z,7.33
2023-02-20T04:13:14.875Z,7.30
2023-02-20T04:15:46.796Z,9.90
2023-02-20T04:18:19.307Z,7.37
2023-02-20T04:20:50.076Z,7.33
2023-02-20T04:23:31.278Z,10.10
2023-02-20T04:26:04.117Z,8.73
2023-02-20T04:28:45.476Z,9.00
2023-02-20T04:31:19.057Z,9.47
2023-02-20T04:33:52.422Z,8.20
2023-02-20T04:36:25.341Z,10.33
2023-02-20T04:38:57.263Z,8.13
2023-02-20T04:41:31.454Z,7.77
2023-02-20T04:44:15.216Z,8.00
2023-02-20T04:46:46.471Z,9.17
2023-02-20T04:49:17.024Z,9.07
2023-02-20T04:51:53.731Z,9.70
2023-02-20T04:54:25.166Z,8.40
2023-02-20T04:56:55.920Z,8.70
2023-02-20T04:59:25.354Z,7.83
2023-02-20T05:01:54.865Z,10.90
2023-02-20T05:04:24.335Z,8.93
2023-02-20T05:06:55.004Z,7.47
2023-02-20T05:09:25.227Z,8.27
2023-02-20T05:11:57.788Z,8.00
2023-02-20T05:14:28.596Z,7.53
2023-02-20T05:17:00.251Z,8.57
2023-02-20T05:19:28.677Z,8.43
2023-02-20T05:22:15.835Z,7.83
2023-02-20T05:24:45.248Z,8.70
2023-02-20T05:27:17.263Z,7.80
2023-02-20T05:29:46.932Z,9.87
2023-02-20T05:32:17.941Z,8.67
2023-02-20T05:34:49.075Z,9.57
2023-02-20T05:37:19.289Z,9.53
2023-02-20T05:39:48.024Z,8.63
2023-02-20T05:42:19.478Z,8.40
2023-02-20T05:44:49.851Z,9.93
2023-02-20T05:47:18.081Z,8.07
2023-02-20T05:49:48.290Z,8.93
2023-02-20T05:52:25.694Z,8.47
2023-02-20T05:54:53.973Z,8.13
2023-02-20T05:57:24.274Z,9.83
2023-02-20T05:59:53.223Z,8.73
2023-02-20T06:02:22.166Z,7.73
2023-02-20T06:04:50.783Z,9.43
2023-02-20T06:07:19.157Z,9.37
2023-02-20T06:09:47.699Z,8.03
2023-02-20T06:12:15.692Z,10.90
2023-02-20T06:14:44.978Z,8.93
2023-02-20T06:17:14.156Z,9.20
2023-02-20T06:19:45.112Z,10.23
2023-02-20T06:22:15.052Z,8.13
2023-02-20T06:24:46.686Z,8.97
2023-02-20T06:27:17.973Z,8.70
2023-02-20T06:29:54.865Z,8.57
2023-02-20T06:32:23.259Z,9.13
2023-02-20T06:34:52.333Z,9.47
2023-02-20T06:37:21.180Z,10.97
2023-02-20T06:39:52.233Z,9.93
2023-02-20T06:42:22.281Z,10.20
2023-02-20T06:44:52.394Z,10.33
2023-02-20T06:47:23.020Z,11.93
2023-02-20T06:49:52.849Z,11.50
2023-02-20T06:52:22.131Z,12.80
2023-02-20T06:54:54.184Z,14.13
2023-02-20T06:57:22.536Z,14.00
2023-02-20T06:59:52.149Z,13.93
2023-02-20T07:02:20.163Z,14.33
2023-02-20T07:04:52.647Z,16.13
2023-02-20T07:07:20.631Z,14.70
2023-02-20T07:09:51.244Z,15.97
2023-02-20T07:12:21.190Z,14.33
2023-02-20T07:14:53.939Z,13.17
2023-02-20T07:17:27.686Z,14.97
2023-02-20T07:19:58.049Z,15.30
2023-02-20T07:22:26.528Z,13.40
2023-02-20T07:24:57.145Z,14.50
2023-02-20T07:27:25.699Z,13.33
2023-02-20T07:29:55.291Z,13.40
2023-02-20T07:32:23.793Z,16.17
2023-02-20T07:35:03.802Z,13.80
2023-02-20T07:37:35.728Z,13.13
2023-02-20T07:40:04.417Z,14.43
2023-02-20T07:42:35.643Z,11.40
2023-02-20T07:45:25.756Z,15.37
2023-02-20T07:47:56.345Z,11.77
2023-02-20T07:50:24.321Z,12.30
2023-02-20T07:52:54.192Z,9.73
2023-02-20T07:55:24.755Z,11.63
2023-02-20T07:57:54.468Z,10.27
2023-02-20T08:00:28.189Z,11.97
2023-02-20T08:02:59.432Z,14.40
2023-02-20T08:05:48.599Z,11.43
2023-02-20T08:08:18.770Z,9.87
2023-02-20T08:10:50.526Z,15.93
2023-02-20T08:13:21.599Z,11.33
2023-02-20T08:15:51.546Z,8.90
2023-02-20T08:18:23.887Z,16.37
2023-02-20T08:20:53.706Z,8.37
2023-02-20T08:23:24.059Z,9.33
2023-02-20T08:25:54.208Z,14.37
2023-02-20T08:28:24.418Z,10.93
2023-02-20T08:30:56.705Z,9.13
2023-02-20T08:33:28.666Z,9.33
2023-02-20T08:35:58.912Z,9.13
2023-02-20T08:38:34.515Z,8.73
2023-02-20T08:41:05.155Z,8.33
2023-02-20T08:43:35.633Z,14.37
2023-02-20T08:46:08.472Z,16.63
2023-02-20T08:48:39.646Z,25.47
2023-02-20T08:51:09.161Z,8.63
2023-02-20T08:53:39.900Z,25.77
2023-02-20T08:56:08.296Z,27.10
2023-02-20T08:58:36.160Z,14.50
2023-02-20T09:01:07.040Z,13.13
2023-02-20T09:03:38.668Z,20.07
2023-02-20T09:06:08.289Z,25.63
2023-02-20T09:08:39.732Z,12.87
2023-02-20T09:11:10.144Z,11.07
2023-02-20T09:13:43.986Z,17.73
2023-02-20T09:16:16.599Z,15.70
2023-02-20T09:18:45.876Z,9.03
2023-02-20T09:21:17.944Z,7.10
2023-02-20T09:23:47.479Z,7.67
2023-02-20T09:26:16.728Z,13.80
2023-02-20T09:28:45.350Z,6.17
2023-02-20T09:31:14.895Z,7.40
2023-02-20T09:33:51.103Z,6.90
2023-02-20T09:36:22.168Z,7.67
2023-02-20T09:38:50.032Z,24.10
2023-02-20T09:41:34.598Z,20.00
2023-02-20T09:44:08.400Z,25.40
2023-02-20T09:46:39.586Z,8.20
2023-02-20T09:49:12.637Z,7.70
2023-02-20T09:51:46.270Z,7.90
2023-02-20T09:54:18.935Z,7.50
2023-02-20T09:56:52.212Z,5.50
2023-02-20T09:59:26.254Z,7.93
2023-02-20T10:02:02.432Z,11.60
2023-02-20T10:04:39.040Z,7.43
2023-02-20T10:07:17.570Z,11.83
2023-02-20T10:09:47.953Z,6.90
2023-02-20T10:12:23.739Z,8.90
2023-02-20T10:15:08.332Z,24.73
2023-02-20T10:17:46.360Z,6.53
2023-02-20T10:20:16.522Z,7.47
2023-02-20T10:22:50.856Z,19.77
2023-02-20T10:25:24.912Z,14.83
2023-02-20T10:27:59.275Z,8.13
2023-02-20T10:30:32.454Z,6.07
2023-02-20T10:33:07.026Z,7.83
2023-02-20T10:35:41.687Z,7.77
2023-02-20T10:38:12.414Z,8.20
2023-02-20T10:40:44.384Z,8.57
2023-02-20T10:43:18.227Z,5.97
2023-02-20T10:45:53.273Z,6.27
2023-02-20T10:48:25.364Z,4.93
2023-02-20T10:50:57.622Z,6.07
2023-02-20T10:53:33.126Z,4.87
2023-02-20T10:56:08.563Z,8.07
2023-02-20T10:58:42.290Z,7.63
2023-02-20T11:01:15.237Z,5.77
2023-02-20T11:03:53.731Z,9.43
2023-02-20T11:06:25.711Z,7.00
2023-02-20T11:08:54.132Z,6.00
2023-02-20T11:11:26.106Z,6.50
2023-02-20T11:13:54.842Z,5.73
2023-02-20T11:16:27.075Z,8.60
2023-02-20T11:19:10.982Z,6.53
2023-02-20T11:21:43.391Z,6.87
2023-02-20T11:24:31.438Z,5.77
2023-02-20T11:27:07.507Z,5.83
2023-02-20T11:29:41.868Z,6.23
2023-02-20T11:32:25.919Z,8.83
2023-02-20T11:35:29.468Z,6.77
2023-02-20T11:38:34.259Z,6.77
2023-02-20T11:41:29.443Z,6.60
2023-02-20T11:44:25.934Z,7.47
2023-02-20T11:47:21.277Z,5.93
2023-02-20T11:50:01.255Z,7.30
2023-02-20T11:52:37.117Z,8.10
2023-02-20T11:55:14.826Z,5.97
2023-02-20T11:57:45.379Z,10.10
2023-02-20T12:00:20.285Z,5.87
2023-02-20T12:02:57.846Z,6.47
2023-02-20T12:05:42.555Z,7.23
2023-02-20T12:08:34.278Z,15.83
2023-02-20T12:11:10.101Z,6.63
2023-02-20T12:13:43.542Z,6.07
2023-02-20T12:16:38.344Z,6.90
2023-02-20T12:19:14.882Z,8.63
2023-02-20T12:21:56.470Z,7.63
2023-02-20T12:24:44.045Z,7.03
2023-02-20T12:27:28.057Z,9.43
2023-02-20T12:30:01.859Z,9.93
2023-02-20T12:32:37.902Z,8.13
2023-02-20T12:35:32.182Z,9.07
2023-02-20T12:38:15.177Z,7.80
2023-02-20T12:41:08.058Z,7.93
2023-02-20T12:43:47.250Z,10.90
2023-02-20T12:46:19.792Z,9.70
2023-02-20T12:48:57.295Z,10.17
2023-02-20T12:51:33.561Z,9.30
2023-02-20T12:54:14.886Z,9.17
2023-02-20T12:56:56.519Z,8.40
2023-02-20T12:59:30.129Z,10.30
2023-02-20T13:02:07.680Z,10.17
2023-02-20T13:04:44.311Z,9.50
2023-02-20T13:07:19.540Z,9.40
2023-02-20T13:09:59.298Z,12.17
2023-02-20T13:12:31.970Z,11.33
2023-02-20T13:15:12.073Z,10.47
2023-02-20T13:17:49.004Z,11.03
2023-02-20T13:20:20.301Z,14.23
2023-02-20T13:23:01.778Z,11.30
2023-02-20T13:25:44.034Z,12.73
2023-02-20T13:28:25.627Z,12.30
2023-02-20T13:31:19.130Z,14.23
2023-02-20T13:33:54.177Z,13.40
2023-02-20T13:36:44.868Z,13.93
2023-02-20T13:39:42.550Z,16.10
2023-02-20T13:42:30.465Z,13.60
2023-02-20T13:45:40.799Z,15.10
2023-02-20T13:48:21.846Z,14.57
2023-02-20T13:50:50.063Z,15.03
2023-02-20T13:53:19.102Z,14.40
2023-02-20T13:55:48.888Z,14.83
2023-02-20T13:58:18.916Z,16.63
2023-02-20T14:00:55.917Z,13.27
2023-02-20T14:03:25.865Z,13.77
2023-02-20T14:06:08.652Z,16.80
2023-02-20T14:08:38.890Z,15.37
2023-02-20T14:11:11.410Z,12.50
2023-02-20T14:13:46.901Z,15.83
2023-02-20T14:16:29.835Z,14.23
2023-02-20T14:19:00.013Z,16.23
2023-02-20T14:21:30.212Z,13.57
2023-02-20T14:23:58.697Z,11.43
2023-02-20T14:26:31.481Z,12.30
2023-02-20T14:29:01.367Z,14.10
2023-02-20T14:31:35.116Z,12.27
2023-02-20T14:34:11.369Z,12.53
2023-02-20T14:36:56.600Z,11.40
2023-02-20T14:39:36.127Z,12.30
2023-02-20T14:42:07.968Z,11.90
2023-02-20T14:44:37.464Z,11.43
2023-02-20T14:47:12.218Z,12.33
2023-02-20T14:49:44.702Z,15.80
2023-02-20T14:52:15.928Z,8.87
2023-02-20T14:54:45.575Z,10.53
2023-02-20T14:57:15.080Z,11.10
2023-02-20T14:59:43.986Z,10.10
2023-02-20T15:02:33.356Z,8.93
2023-02-20T15:05:05.099Z,9.23
2023-02-20T15:07:34.717Z,11.47
2023-02-20T15:10:06.957Z,11.43
2023-02-20T15:12:39.550Z,9.33
2023-02-20T15:15:12.921Z,10.87
2023-02-20T15:17:44.406Z,9.67
2023-02-20T15:20:21.216Z,9.00
2023-02-20T15:22:49.374Z,9.73
2023-02-20T15:25:28.957Z,10.73
2023-02-20T15:28:11.179Z,7.63
2023-02-20T15:31:05.768Z,10.10
2023-02-20T15:33:37.015Z,7.90
2023-02-20T15:36:06.405Z,8.13
2023-02-20T15:38:36.298Z,7.97
2023-02-20T15:41:06.398Z,9.80
2023-02-20T15:43:47.173Z,9.47
2023-02-20T15:46:18.322Z,8.47
2023-02-20T15:48:50.987Z,9.37
2023-02-20T15:51:22.919Z,9.80
2023-02-20T15:53:53.080Z,13.67
2023-02-20T15:56:21.870Z,10.53
2023-02-20T15:58:53.714Z,12.63
2023-02-20T16:01:23.359Z,7.63
2023-02-20T16:03:54.775Z,11.60
2023-02-20T16:06:24.004Z,10.63
2023-02-20T16:08:54.081Z,10.00
2023-02-20T16:11:23.952Z,12.57
2023-02-20T16:13:54.798Z,10.30
2023-02-20T16:16:25.748Z,11.13
2023-02-20T16:18:57.613Z,9.53
2023-02-20T16:21:26.311Z,8.50
2023-02-20T16:23:56.181Z,10.57
2023-02-20T16:26:27.994Z,9.57
2023-02-20T16:28:58.803Z,9.57
2023-02-20T16:32:07.711Z,11.73
2023-02-20T16:34:38.273Z,13.00
2023-02-20T16:37:06.258Z,9.30
2023-02-20T16:39:36.721Z,10.80
2023-02-20T16:42:17.533Z,11.53
2023-02-20T16:44:46.896Z,10.47
2023-02-20T16:47:17.215Z,11.87
2023-02-20T16:49:54.037Z,9.77
2023-02-20T16:52:26.856Z,9.77
2023-02-20T16:54:57.105Z,9.30
2023-02-20T16:57:26.021Z,9.57
2023-02-20T16:59:58.160Z,9.97
2023-02-20T17:02:29.942Z,9.37
2023-02-20T17:05:00.375Z,12.13
2023-02-20T17:07:31.826Z,12.00
2023-02-20T17:10:02.822Z,11.03
2023-02-20T17:12:34.959Z,8.97
2023-02-20T17:15:08.431Z,12.40
2023-02-20T17:17:36.798Z,11.17
2023-02-20T17:20:08.177Z,10.90
2023-02-20T17:22:36.575Z,10.97
2023-02-20T17:25:06.406Z,10.33
2023-02-20T17:27:34.701Z,9.57
2023-02-20T17:30:03.306Z,10.43
2023-02-20T17:32:33.450Z,10.43
2023-02-20T17:35:02.728Z,11.73
2023-02-20T17:37:34.579Z,9.73
2023-02-20T17:40:03.825Z,9.93
2023-02-20T17:42:33.253Z,9.80
2023-02-20T17:45:01.663Z,10.70
2023-02-20T17:47:31.221Z,10.37
2023-02-20T17:50:00.027Z,10.33
2023-02-20T17:52:29.458Z,11.87
2023-02-20T17:55:01.799Z,9.30
2023-02-20T17:57:35.313Z,11.40
2023-02-20T18:00:03.434Z,8.77
2023-02-20T18:02:39.685Z,8.87
2023-02-20T18:05:10.443Z,9.47
2023-02-20T18:07:40.163Z,9.07
2023-02-20T18:10:14.164Z,9.00
2023-02-20T18:12:43.415Z,9.13
2023-02-20T18:15:11.955Z,9.93
2023-02-20T18:17:40.239Z,11.40
2023-02-20T18:20:13.995Z,10.00
2023-02-20T18:22:42.198Z,11.10
2023-02-20T18:25:12.986Z,10.93
2023-02-20T18:27:41.032Z,10.33
2023-02-20T18:30:12.040Z,12.17
2023-02-20T18:32:41.242Z,13.90
2023-02-20T18:35:10.775Z,12.37
2023-02-20T18:37:39.299Z,11.13
2023-02-20T18:40:14.413Z,16.13
2023-02-20T18:42:47.339Z,13.97
2023-02-20T18:45:16.689Z,13.67
2023-02-20T18:47:50.783Z,15.60
2023-02-20T18:50:26.136Z,13.90
2023-02-20T18:52:54.698Z,13.83
2023-02-20T18:55:31.656Z,16.17
2023-02-20T18:58:00.577Z,14.40
2023-02-20T19:00:31.063Z,16.87
2023-02-20T19:03:00.987Z,14.23
2023-02-20T19:05:31.429Z,16.97
2023-02-20T19:08:00.148Z,15.60
2023-02-20T19:10:29.692Z,15.03
2023-02-20T19:12:59.074Z,13.97
2023-02-20T19:15:27.978Z,15.47
2023-02-20T19:17:56.038Z,12.87
2023-02-20T19:20:29.220Z,14.20
2023-02-20T19:22:58.743Z,13.70
2023-02-20T19:25:32.024Z,12.33
2023-02-20T19:28:03.003Z,11.67
2023-02-20T19:30:32.506Z,12.87
2023-02-20T19:33:05.995Z,15.17
2023-02-20T19:35:35.052Z,12.37
2023-02-20T19:38:03.730Z,12.83
2023-02-20T19:40:33.702Z,12.53
2023-02-20T19:43:03.322Z,11.80
2023-02-20T19:45:32.917Z,11.23
2023-02-20T19:48:01.636Z,13.20
2023-02-20T19:50:31.250Z,12.97
2023-02-20T19:52:59.499Z,11.10
2023-02-20T19:55:27.762Z,12.60
2023-02-20T19:57:57.571Z,10.97
2023-02-20T20:00:28.688Z,13.23
2023-02-20T20:03:01.274Z,11.33
2023-02-20T20:05:30.428Z,12.97
2023-02-20T20:08:03.167Z,10.60
2023-02-20T20:10:32.190Z,9.77
2023-02-20T20:13:01.588Z,10.77
2023-02-20T20:15:30.372Z,10.60
2023-02-20T20:18:00.760Z,10.93
2023-02-20T20:20:30.552Z,10.73
2023-02-20T20:23:02.032Z,10.87
2023-02-20T20:25:31.986Z,10.87
2023-02-20T20:28:07.397Z,9.27
2023-02-20T20:30:38.372Z,9.97
2023-02-20T20:33:08.540Z,8.63
2023-02-20T20:35:37.458Z,9.97
2023-02-20T20:38:05.874Z,9.60
2023-02-20T20:40:35.250Z,8.73
2023-02-20T20:43:05.256Z,8.70
2023-02-20T20:45:33.730Z,8.50
2023-02-20T20:48:03.556Z,9.00
2023-02-20T20:50:31.789Z,8.63
2023-02-20T20:53:01.603Z,8.13
2023-02-20T20:55:31.922Z,7.70
2023-02-20T20:58:00.513Z,8.00
2023-02-20T21:00:33.414Z,9.03
2023-02-20T21:03:04.738Z,8.40
2023-02-20T21:05:36.898Z,8.23
2023-02-20T21:08:05.885Z,8.37
2023-02-20T21:10:34.659Z,8.20
2023-02-20T21:13:03.681Z,8.30
2023-02-20T21:15:35.770Z,11.20
2023-02-20T21:18:06.239Z,8.30
2023-02-20T21:20:37.742Z,9.13
2023-02-20T21:23:10.870Z,7.90
2023-02-20T21:25:41.996Z,8.40
2023-02-20T21:28:13.317Z,8.07
2023-02-20T21:30:43.296Z,8.17
2023-02-20T21:33:11.877Z,8.80
2023-02-20T21:35:40.137Z,7.53
2023-02-20T21:38:08.632Z,8.13
2023-02-20T21:40:38.519Z,7.50
2023-02-20T21:43:24.052Z,7.83
2023-02-20T21:45:55.942Z,9.37
2023-02-20T21:48:25.032Z,8.70
2023-02-20T21:50:53.532Z,7.47
2023-02-20T21:53:22.699Z,7.77
2023-02-20T21:55:51.194Z,7.70
2023-02-20T21:58:19.181Z,9.23
2023-02-20T22:00:47.560Z,7.80
2023-02-20T22:03:16.691Z,8.20
2023-02-20T22:05:43.598Z,8.87
2023-02-20T22:08:29.713Z,7.17
2023-02-20T22:11:17.603Z,8.80
2023-02-20T22:14:04.535Z,7.73
2023-02-20T22:16:51.075Z,7.40
2023-02-20T22:19:38.464Z,8.73
2023-02-20T22:22:25.893Z,6.67
2023-02-20T22:25:12.324Z,10.30
2023-02-20T22:27:58.509Z,7.43
2023-02-20T22:30:44.483Z,7.97
2023-02-20T22:33:30.769Z,7.83
2023-02-20T22:36:17.872Z,7.93
2023-02-20T22:39:05.952Z,9.20
2023-02-20T22:41:51.518Z,7.83
2023-02-20T22:44:40.765Z,7.20
2023-02-20T22:47:26.772Z,7.70
2023-02-20T22:50:13.302Z,7.80
2023-02-20T22:53:00.660Z,7.83
2023-02-20T22:55:47.099Z,7.80
2023-02-20T22:58:33.212Z,7.93
2023-02-20T23:01:18.750Z,8.53
2023-02-20T23:04:06.644Z,7.83
2023-02-20T23:06:51.978Z,7.83
2023-02-20T23:09:40.348Z,8.17
2023-02-20T23:12:30.697Z,7.90
2023-02-20T23:15:17.009Z,8.47
2023-02-20T23:18:05.267Z,8.17
2023-02-20T23:20:53.139Z,8.17
2023-02-20T23:23:38.700Z,9.23
2023-02-20T23:26:30.744Z,8.00
2023-02-20T23:29:17.676Z,8.57
2023-02-20T23:32:03.540Z,8.33
2023-02-20T23:34:50.175Z,7.73
2023-02-20T23:37:37.362Z,7.87
2023-02-20T23:40:35.710Z,8.77
2023-02-20T23:43:25.193Z,7.90
2023-02-20T23:46:11.413Z,7.90
2023-02-20T23:48:56.598Z,7.23
2023-02-20T23:51:42.987Z,7.07
2023-02-20T23:54:30.717Z,6.93
2023-02-20T23:57:16.970Z,7.30
